EWG8B EDDL-LOWI
Flight info
| Callsign | EWG8B |
|---|---|
| Flight time | N/A |
| Altitude | 32000 |
| Route | DODEN7Z DODEN Y852 TUSUK DCT ULNOK L607 TEDGO DCT BATUB M738 MADEB MADEB1B |
| Aircraft | A319/M-SDE3FGHIRWY/LB1 |
Departure
| Time | 2026-05-07 20:19 |
|---|---|
| Airport | Düsseldorf Airport (EDDL) |
Arrival
| Time | N/A |
|---|---|
| Airport | Innsbruck Airport (LOWI) |
| Time | Latitude | Longitude | Altitude | Speed | Heading |
|---|---|---|---|---|---|
| 2026-05-07 20:00 | 51.28106 | 6.76718 | 128 ft | 0 kts | 276° |
| 2026-05-07 20:08 | 51.28105 | 6.76734 | 124 ft | 4 kts | 277° |
| 2026-05-07 20:08 | 51.28100 | 6.76777 | 124 ft | 4 kts | 293° |
| 2026-05-07 20:08 | 51.28086 | 6.76802 | 125 ft | 3 kts | 15° |
| 2026-05-07 20:09 | 51.28063 | 6.76791 | 127 ft | 2 kts | 18° |
| 2026-05-07 20:09 | 51.28062 | 6.76790 | 127 ft | 0 kts | 18° |
| 2026-05-07 20:14 | 51.28078 | 6.76798 | 125 ft | 4 kts | 18° |
| 2026-05-07 20:14 | 51.28122 | 6.76821 | 129 ft | 8 kts | 17° |
| 2026-05-07 20:14 | 51.28184 | 6.76840 | 129 ft | 10 kts | 4° |
| 2026-05-07 20:14 | 51.28257 | 6.76849 | 129 ft | 11 kts | 4° |
| 2026-05-07 20:15 | 51.28336 | 6.76863 | 128 ft | 12 kts | 8° |
| 2026-05-07 20:15 | 51.28415 | 6.76819 | 127 ft | 14 kts | 318° |
| 2026-05-07 20:15 | 51.28447 | 6.76688 | 122 ft | 16 kts | 239° |
| 2026-05-07 20:15 | 51.28374 | 6.76535 | 124 ft | 19 kts | 232° |
| 2026-05-07 20:16 | 51.28297 | 6.76373 | 125 ft | 18 kts | 231° |
| 2026-05-07 20:16 | 51.28221 | 6.76217 | 128 ft | 16 kts | 231° |
| 2026-05-07 20:16 | 51.28200 | 6.76170 | 126 ft | 0 kts | 234° |
| 2026-05-07 20:16 | 51.28194 | 6.76158 | 126 ft | 3 kts | 233° |
| 2026-05-07 20:17 | 51.28189 | 6.76115 | 129 ft | 5 kts | 276° |
| 2026-05-07 20:17 | 51.28215 | 6.76067 | 125 ft | 6 kts | 328° |
| 2026-05-07 20:17 | 51.28262 | 6.76037 | 124 ft | 10 kts | 352° |
| 2026-05-07 20:17 | 51.28344 | 6.76041 | 129 ft | 13 kts | 10° |
| 2026-05-07 20:18 | 51.28409 | 6.76137 | 129 ft | 13 kts | 50° |
| 2026-05-07 20:18 | 51.28471 | 6.76268 | 128 ft | 24 kts | 53° |
| 2026-05-07 20:18 | 51.28754 | 6.76863 | 127 ft | 105 kts | 52° |
| 2026-05-07 20:18 | 51.29306 | 6.78018 | 288 ft | 145 kts | 52° |
| 2026-05-07 20:19 | 51.29921 | 6.79293 | 968 ft | 145 kts | 53° |
| 2026-05-07 20:19 | 51.30536 | 6.80591 | 1573 ft | 153 kts | 54° |
| 2026-05-07 20:19 | 51.31221 | 6.82048 | 1989 ft | 175 kts | 53° |
| 2026-05-07 20:19 | 51.31997 | 6.83697 | 2367 ft | 199 kts | 53° |
| 2026-05-07 20:20 | 51.32884 | 6.85573 | 2832 ft | 223 kts | 53° |
| 2026-05-07 20:20 | 51.33863 | 6.87668 | 3395 ft | 247 kts | 53° |
| 2026-05-07 20:20 | 51.34854 | 6.89999 | 4243 ft | 258 kts | 62° |
| 2026-05-07 20:20 | 51.35265 | 6.92815 | 5221 ft | 267 kts | 90° |
| 2026-05-07 20:21 | 51.35013 | 6.95785 | 6269 ft | 270 kts | 98° |
| 2026-05-07 20:21 | 51.34704 | 6.98766 | 7234 ft | 275 kts | 98° |
| 2026-05-07 20:21 | 51.34391 | 7.01800 | 8159 ft | 280 kts | 99° |
| 2026-05-07 20:21 | 51.34071 | 7.04915 | 9066 ft | 286 kts | 99° |
| 2026-05-07 20:22 | 51.33746 | 7.08095 | 9987 ft | 291 kts | 99° |
| 2026-05-07 20:22 | 51.33416 | 7.11362 | 10553 ft | 309 kts | 99° |
| 2026-05-07 20:22 | 51.32937 | 7.14818 | 10994 ft | 327 kts | 109° |
| 2026-05-07 20:22 | 51.32359 | 7.17066 | 11472 ft | 332 kts | 117° |
| 2026-05-07 20:23 | 51.31104 | 7.20200 | 12285 ft | 336 kts | 130° |
| 2026-05-07 20:23 | 51.29483 | 7.22917 | 13115 ft | 340 kts | 136° |
| 2026-05-07 20:23 | 51.27788 | 7.25583 | 13948 ft | 344 kts | 136° |
| 2026-05-07 20:23 | 51.26071 | 7.28286 | 14668 ft | 348 kts | 136° |
| 2026-05-07 20:24 | 51.24338 | 7.31017 | 15392 ft | 352 kts | 136° |
| 2026-05-07 20:24 | 51.22586 | 7.33780 | 16118 ft | 356 kts | 136° |
| 2026-05-07 20:24 | 51.20909 | 7.36429 | 16795 ft | 360 kts | 136° |
| 2026-05-07 20:24 | 51.19118 | 7.39252 | 17510 ft | 363 kts | 136° |
| 2026-05-07 20:25 | 51.17308 | 7.42097 | 18231 ft | 367 kts | 136° |
| 2026-05-07 20:25 | 51.15477 | 7.44972 | 18857 ft | 371 kts | 136° |
| 2026-05-07 20:25 | 51.13619 | 7.47862 | 19476 ft | 375 kts | 137° |
| 2026-05-07 20:25 | 51.11736 | 7.50753 | 20095 ft | 378 kts | 137° |
| 2026-05-07 20:26 | 51.09824 | 7.53663 | 20720 ft | 382 kts | 137° |
| 2026-05-07 20:26 | 51.07924 | 7.56544 | 21331 ft | 385 kts | 137° |